Terminal Aerodrome Forecast
Issued by NWS

Home | Current Version | Previous Version | Graphics & Text | Print | Product List | Glossary On
Versions: 1 2 3 4 5 6 7 8 9 10 11 12 13 14 15 16 17 18 19 20 21 22 23 24 25 26 27 28 29 30 31
000
FTUS43 KLOT 230300 AAB
TAFDPA
TAF AMD
KDPA 230300Z 2303/2324 26010KT 6SM HZ VCTS BKN040CB
     FM230340 33012G22KT 4SM TSRA SCT025 BKN035CB
     FM230420 34011KT P6SM SCT040
     FM230530 03013G19KT P6SM SCT015
     FM231400 03015G23KT P6SM FEW250=

USA.gov is the U.S. government's official web portal to all federal, state and local government web resources and services.